Terminal Aerodrome Forecast
Issued by NWS

Home | Current Version | Previous Version | Text Only | Print | Product List | Glossary On
Versions: 1 2 3 4 5 6 7 8 9 10 11 12 13 14 15 16
643
FTUS43 KTOP 302334
TAFMHK
TAF
KMHK 302334Z 3100/3124 19013KT P6SM FEW050
     FM310200 17005KT P6SM SCT250
     FM311000 18005KT 5SM BR BKN020
     FM311400 18006KT P6SM VCTS BKN020CB
     FM312000 19006KT P6SM BKN050=

USA.gov is the U.S. government's official web portal to all federal, state and local government web resources and services.